createdAt,value
2023-08-26T00:00:32.966Z,100739.28
2023-08-26T00:03:06.435Z,100735.78
2023-08-26T00:05:38.704Z,100741.75
2023-08-26T00:08:11.070Z,100747.06
2023-08-26T00:10:43.264Z,100749.25
2023-08-26T00:13:15.509Z,100750.13
2023-08-26T00:15:47.667Z,100750.34
2023-08-26T00:18:19.755Z,100749.63
2023-08-26T00:20:53.384Z,100740.84
2023-08-26T00:23:25.499Z,100744.41
2023-08-26T00:25:57.657Z,100744.31
2023-08-26T00:28:29.938Z,100733.69
2023-08-26T00:31:02.150Z,100732.84
2023-08-26T00:33:34.290Z,100736.56
2023-08-26T00:36:06.540Z,100735.84
2023-08-26T00:38:38.696Z,100716.53
2023-08-26T00:41:10.857Z,100710.28
2023-08-26T00:43:42.943Z,100720.06
2023-08-26T00:46:15.522Z,100711.47
2023-08-26T00:48:48.000Z,100712.69
2023-08-26T00:51:20.818Z,100717.16
2023-08-26T00:53:53.064Z,100713.56
2023-08-26T00:56:25.303Z,100708.31
2023-08-26T00:58:57.607Z,100707.53
2023-08-26T01:01:33.238Z,100710.28
2023-08-26T01:04:05.916Z,100726.50
2023-08-26T01:06:38.283Z,100726.28
2023-08-26T01:09:10.503Z,100725.50
2023-08-26T01:12:23.084Z,100726.34
2023-08-26T01:15:09.598Z,100729.88
2023-08-26T01:17:45.700Z,100724.00
2023-08-26T01:20:18.975Z,100719.69
2023-08-26T01:22:54.978Z,100717.97
2023-08-26T01:25:27.530Z,100721.19
2023-08-26T01:27:59.982Z,100726.81
2023-08-26T01:30:33.093Z,100723.72
2023-08-26T01:33:23.116Z,100726.44
2023-08-26T01:36:00.921Z,100718.50
2023-08-26T01:38:33.842Z,100717.78
2023-08-26T01:41:08.964Z,100711.69
2023-08-26T01:43:42.804Z,100707.16
2023-08-26T01:46:17.093Z,100722.16
2023-08-26T01:48:49.266Z,100723.16
2023-08-26T01:51:24.566Z,100718.84
2023-08-26T01:53:56.670Z,100724.44
2023-08-26T01:56:28.786Z,100726.25
2023-08-26T01:59:01.009Z,100721.91
2023-08-26T02:01:34.983Z,100725.63
2023-08-26T02:04:07.432Z,100727.72
2023-08-26T02:06:41.557Z,100732.16
2023-08-26T02:09:16.300Z,100729.72
2023-08-26T02:11:48.456Z,100728.00
2023-08-26T02:14:20.578Z,100726.41
2023-08-26T02:16:52.758Z,100726.44
2023-08-26T02:19:24.890Z,100725.66
2023-08-26T02:21:57.123Z,100737.19
2023-08-26T02:24:30.520Z,100735.34
2023-08-26T02:27:02.617Z,100731.72
2023-08-26T02:29:34.688Z,100740.47
2023-08-26T02:32:08.243Z,100745.69
2023-08-26T02:34:40.559Z,100741.25
2023-08-26T02:37:12.683Z,100738.59
2023-08-26T02:39:44.842Z,100734.94
2023-08-26T02:42:17.023Z,100738.41
2023-08-26T02:44:49.322Z,100731.38
2023-08-26T02:47:21.392Z,100731.56
2023-08-26T02:49:53.547Z,100726.13
2023-08-26T02:52:25.715Z,100729.66
2023-08-26T02:54:57.972Z,100728.56
2023-08-26T02:57:30.088Z,100736.25
2023-08-26T03:00:04.508Z,100730.69
2023-08-26T03:02:37.186Z,100741.94
2023-08-26T03:05:09.689Z,100736.91
2023-08-26T03:07:41.814Z,100738.50
2023-08-26T03:10:13.974Z,100742.88
2023-08-26T03:12:46.122Z,100736.56
2023-08-26T03:15:18.655Z,100742.81
2023-08-26T03:17:50.822Z,100737.34
2023-08-26T03:20:23.505Z,100744.59
2023-08-26T03:22:55.766Z,100744.06
2023-08-26T03:25:27.875Z,100744.84
2023-08-26T03:27:59.986Z,100743.81
2023-08-26T03:30:32.071Z,100736.78
2023-08-26T03:33:05.122Z,100733.97
2023-08-26T03:35:40.502Z,100741.72
2023-08-26T03:38:12.613Z,100737.34
2023-08-26T03:40:44.759Z,100744.53
2023-08-26T03:43:17.236Z,100763.97
2023-08-26T03:45:49.643Z,100773.78
2023-08-26T03:48:25.047Z,100779.09
2023-08-26T03:50:58.354Z,100772.16
2023-08-26T03:53:30.519Z,100776.69
2023-08-26T03:56:02.775Z,100776.44
2023-08-26T03:58:35.138Z,100774.97
2023-08-26T04:01:07.552Z,100775.97
2023-08-26T04:06:12.686Z,100780.50
2023-08-26T04:08:46.322Z,100769.75
2023-08-26T04:11:19.021Z,100774.25
2023-08-26T04:13:51.139Z,100780.25
2023-08-26T04:16:23.225Z,100783.50
2023-08-26T04:18:55.446Z,100785.63
2023-08-26T04:21:27.623Z,100787.53
2023-08-26T04:23:59.729Z,100784.69
2023-08-26T04:26:31.850Z,100785.16
2023-08-26T04:29:03.986Z,100789.59
2023-08-26T04:31:36.134Z,100790.38
2023-08-26T04:34:08.396Z,100794.91
2023-08-26T04:36:40.521Z,100793.81
2023-08-26T04:39:12.609Z,100801.94
2023-08-26T04:41:44.871Z,100799.59
2023-08-26T04:44:22.515Z,100800.69
2023-08-26T04:46:54.950Z,100795.56
2023-08-26T04:49:27.142Z,100798.22
2023-08-26T04:52:00.080Z,100805.44
2023-08-26T04:54:32.328Z,100807.31
2023-08-26T04:57:04.759Z,100804.00
2023-08-26T04:59:38.300Z,100804.06
2023-08-26T05:02:10.485Z,100813.88
2023-08-26T05:04:42.885Z,100821.88
2023-08-26T05:07:15.089Z,100820.97
2023-08-26T05:09:47.595Z,100820.22
2023-08-26T05:12:24.099Z,100827.97
2023-08-26T05:14:56.302Z,100828.22
2023-08-26T05:17:28.740Z,100829.25
2023-08-26T05:20:00.950Z,100829.41
2023-08-26T05:22:33.248Z,100833.91
2023-08-26T05:25:06.875Z,100832.22
2023-08-26T05:27:39.000Z,100833.22
2023-08-26T05:30:12.179Z,100842.09
2023-08-26T05:32:44.418Z,100842.34
2023-08-26T05:35:16.712Z,100853.06
2023-08-26T05:37:49.111Z,100854.03
2023-08-26T05:40:28.062Z,100852.31
2023-08-26T05:43:00.794Z,100853.00
2023-08-26T05:45:33.974Z,100857.31
2023-08-26T05:48:06.749Z,100849.31
2023-08-26T05:50:39.005Z,100847.63
2023-08-26T05:53:11.455Z,100849.38
2023-08-26T05:55:43.880Z,100858.28
2023-08-26T05:58:16.025Z,100856.50
2023-08-26T06:00:50.869Z,100856.56
2023-08-26T06:03:23.157Z,100855.78
2023-08-26T06:05:55.409Z,100854.72
2023-08-26T06:08:27.666Z,100852.94
2023-08-26T06:10:59.816Z,100860.56
2023-08-26T06:13:31.934Z,100858.13
2023-08-26T06:16:04.262Z,100863.28
2023-08-26T06:18:36.423Z,100859.47
2023-08-26T06:21:08.662Z,100858.22
2023-08-26T06:23:41.269Z,100863.88
2023-08-26T06:26:13.449Z,100873.19
2023-08-26T06:28:45.773Z,100869.47
2023-08-26T06:31:17.989Z,100867.44
2023-08-26T06:33:50.893Z,100879.69
2023-08-26T06:36:22.993Z,100881.81
2023-08-26T06:38:55.114Z,100887.56
2023-08-26T06:41:29.748Z,100890.44
2023-08-26T06:44:02.982Z,100888.78
2023-08-26T06:46:35.223Z,100892.97
2023-08-26T06:49:08.405Z,100902.47
2023-08-26T06:51:40.572Z,100910.22
2023-08-26T06:54:12.697Z,100919.91
2023-08-26T06:56:44.793Z,100910.34
2023-08-26T06:59:17.065Z,100903.09
2023-08-26T07:01:49.241Z,100906.81
2023-08-26T07:04:21.706Z,100910.06
2023-08-26T07:06:54.359Z,100911.53
2023-08-26T07:09:26.628Z,100914.91
2023-08-26T07:12:01.042Z,100922.00
2023-08-26T07:14:34.773Z,100924.28
2023-08-26T07:17:06.882Z,100922.81
2023-08-26T07:19:38.965Z,100917.56
2023-08-26T07:22:11.543Z,100924.34
2023-08-26T07:24:46.680Z,100930.00
2023-08-26T07:27:19.724Z,100923.03
2023-08-26T07:29:51.875Z,100932.94
2023-08-26T07:32:24.354Z,100937.25
2023-08-26T07:34:56.476Z,100940.00
2023-08-26T07:37:30.841Z,100948.75
2023-08-26T07:40:07.090Z,100943.59
2023-08-26T07:42:39.346Z,100940.56
2023-08-26T07:45:12.616Z,100943.16
2023-08-26T07:50:19.959Z,100957.47
2023-08-26T07:52:54.973Z,100953.59
2023-08-26T07:55:27.407Z,100960.44
2023-08-26T07:57:59.722Z,100950.31
2023-08-26T08:00:31.823Z,100953.53
2023-08-26T08:03:04.212Z,100958.63
2023-08-26T08:05:36.560Z,100953.19
2023-08-26T08:08:08.648Z,100954.63
2023-08-26T08:10:41.423Z,100958.34
2023-08-26T08:13:15.044Z,100959.25
2023-08-26T08:15:47.290Z,100967.16
2023-08-26T08:18:19.418Z,100967.81
2023-08-26T08:20:51.586Z,100959.41
2023-08-26T08:23:23.862Z,100964.38
2023-08-26T08:25:55.967Z,100967.78
2023-08-26T08:28:28.067Z,100972.78
2023-08-26T08:31:00.659Z,100974.31
2023-08-26T08:33:34.581Z,100988.84
2023-08-26T08:36:06.789Z,100979.34
2023-08-26T08:38:38.905Z,100978.09
2023-08-26T08:41:11.001Z,100984.28
2023-08-26T08:43:46.967Z,100976.25
2023-08-26T08:46:21.865Z,100979.97
2023-08-26T08:48:54.027Z,100976.50
2023-08-26T08:51:28.975Z,100980.28
2023-08-26T08:54:05.543Z,100985.00
2023-08-26T08:56:38.720Z,100996.59
2023-08-26T08:59:12.954Z,100999.56
2023-08-26T09:01:45.628Z,100998.41
2023-08-26T09:04:17.814Z,100999.16
2023-08-26T09:06:50.510Z,100994.47
2023-08-26T09:09:33.796Z,101006.31
2023-08-26T09:12:09.760Z,100996.53
2023-08-26T09:14:41.996Z,100999.72
2023-08-26T09:17:19.593Z,100988.44
2023-08-26T09:19:56.928Z,100999.84
2023-08-26T09:22:31.334Z,100993.53
2023-08-26T09:25:06.341Z,100995.66
2023-08-26T09:27:44.985Z,101000.97
2023-08-26T09:30:23.296Z,101003.94
2023-08-26T09:32:56.557Z,100999.63
2023-08-26T09:38:03.869Z,101015.91
2023-08-26T09:40:36.027Z,101024.41
2023-08-26T09:43:09.402Z,101037.34
2023-08-26T09:45:41.601Z,101030.19
2023-08-26T09:48:25.652Z,101031.63
2023-08-26T09:50:57.770Z,101035.16
2023-08-26T09:53:34.874Z,101034.59
2023-08-26T09:56:07.331Z,101034.38
2023-08-26T09:58:39.438Z,101039.19
2023-08-26T10:01:11.631Z,101036.16
2023-08-26T10:03:50.914Z,101044.63
2023-08-26T10:06:27.350Z,101054.97
2023-08-26T10:09:18.557Z,101052.69
2023-08-26T10:11:56.360Z,101051.28
2023-08-26T10:14:30.783Z,101068.06
2023-08-26T10:17:05.160Z,101060.84
2023-08-26T10:19:37.699Z,101065.13
2023-08-26T10:22:10.950Z,101065.38
2023-08-26T10:24:46.188Z,101059.63
2023-08-26T10:27:19.508Z,101069.50
2023-08-26T10:29:51.920Z,101073.72
2023-08-26T10:32:24.540Z,101061.53
2023-08-26T10:35:00.468Z,101073.81
2023-08-26T10:37:33.900Z,101062.50
2023-08-26T10:40:10.192Z,101058.13
2023-08-26T10:43:06.534Z,101063.53
2023-08-26T10:45:58.896Z,101063.47
2023-08-26T10:48:31.134Z,101070.09
2023-08-26T10:51:03.984Z,101065.28
2023-08-26T10:53:45.896Z,101065.81
2023-08-26T10:56:22.775Z,101051.34
2023-08-26T10:59:04.649Z,101058.75
2023-08-26T11:01:38.051Z,101058.66
2023-08-26T11:04:10.370Z,101055.91
2023-08-26T11:06:42.994Z,101052.19
2023-08-26T11:09:20.750Z,101061.00
2023-08-26T11:11:53.954Z,101062.88
2023-08-26T11:14:35.831Z,101058.03
2023-08-26T11:17:08.550Z,101060.16
2023-08-26T11:19:40.835Z,101059.44
2023-08-26T11:22:12.994Z,101052.97
2023-08-26T11:24:49.968Z,101057.59
2023-08-26T11:27:22.079Z,101064.31
2023-08-26T11:29:54.278Z,101068.44
2023-08-26T11:32:32.085Z,101063.06
2023-08-26T11:35:14.476Z,101056.38
2023-08-26T11:37:52.198Z,101057.66
2023-08-26T11:40:24.959Z,101064.84
2023-08-26T11:42:57.157Z,101066.16
2023-08-26T11:45:29.709Z,101076.06
2023-08-26T11:48:02.051Z,101081.09
2023-08-26T11:50:36.192Z,101072.63
2023-08-26T11:53:08.667Z,101075.13
2023-08-26T11:55:42.983Z,101069.44
2023-08-26T11:58:15.134Z,101067.59
2023-08-26T12:00:49.303Z,101066.41
2023-08-26T12:03:21.848Z,101071.06
2023-08-26T12:05:54.209Z,101075.13
2023-08-26T12:08:26.377Z,101073.59
2023-08-26T12:10:59.393Z,101067.91
2023-08-26T12:13:39.897Z,101059.53
2023-08-26T12:16:14.383Z,101071.28
2023-08-26T12:18:49.525Z,101055.38
2023-08-26T12:21:21.741Z,101067.84
2023-08-26T12:23:53.921Z,101059.47
2023-08-26T12:26:26.755Z,101057.75
2023-08-26T12:29:00.065Z,101061.31
2023-08-26T12:31:35.774Z,101062.31
2023-08-26T12:34:08.424Z,101055.78
2023-08-26T12:36:40.607Z,101069.69
2023-08-26T12:39:12.936Z,101068.13
2023-08-26T12:41:46.333Z,101074.56
2023-08-26T12:44:19.141Z,101076.69
2023-08-26T12:46:52.097Z,101078.00
2023-08-26T12:49:28.072Z,101069.56
2023-08-26T12:52:00.664Z,101080.53
2023-08-26T12:54:32.778Z,101071.72
2023-08-26T12:57:05.226Z,101077.91
2023-08-26T12:59:37.481Z,101082.69
2023-08-26T13:02:09.880Z,101091.06
2023-08-26T13:04:43.175Z,101082.75
2023-08-26T13:07:17.252Z,101082.97
2023-08-26T13:09:49.743Z,101090.09
2023-08-26T13:12:22.054Z,101084.44
2023-08-26T13:14:54.260Z,101082.91
2023-08-26T13:17:27.235Z,101094.28
2023-08-26T13:20:00.294Z,101092.63
2023-08-26T13:22:32.545Z,101098.09
2023-08-26T13:25:05.625Z,101095.31
2023-08-26T13:27:37.877Z,101092.91
2023-08-26T13:30:10.187Z,101086.94
2023-08-26T13:32:42.411Z,101085.41
2023-08-26T13:35:16.637Z,101083.16
2023-08-26T13:37:49.525Z,101088.88
2023-08-26T13:40:21.781Z,101080.72
2023-08-26T13:42:56.400Z,101073.22
2023-08-26T13:45:28.629Z,101082.47
2023-08-26T13:48:01.197Z,101080.00
2023-08-26T13:50:33.509Z,101085.50
2023-08-26T13:53:05.842Z,101093.38
2023-08-26T13:55:38.195Z,101092.59
2023-08-26T13:58:10.340Z,101089.16
2023-08-26T14:00:42.483Z,101098.31
2023-08-26T14:03:14.661Z,101094.47
2023-08-26T14:05:47.540Z,101090.94
2023-08-26T14:08:23.433Z,101091.28
2023-08-26T14:10:55.623Z,101086.59
2023-08-26T14:13:27.935Z,101086.03
2023-08-26T14:16:00.156Z,101082.47
2023-08-26T14:18:32.443Z,101071.16
2023-08-26T14:21:04.746Z,101072.88
2023-08-26T14:23:36.937Z,101065.38
2023-08-26T14:26:09.091Z,101067.25
2023-08-26T14:28:41.236Z,101071.06
2023-08-26T14:31:13.516Z,101072.84
2023-08-26T14:33:47.065Z,101072.59
2023-08-26T14:36:19.216Z,101068.56
2023-08-26T14:38:51.406Z,101070.88
2023-08-26T14:41:23.471Z,101069.25
2023-08-26T14:43:55.782Z,101064.59
2023-08-26T14:46:28.195Z,101064.84
2023-08-26T14:49:00.405Z,101065.22
2023-08-26T14:51:32.672Z,101077.34
2023-08-26T14:54:05.784Z,101074.03
2023-08-26T14:56:37.970Z,101077.22
2023-08-26T14:59:10.298Z,101075.34
2023-08-26T15:01:42.468Z,101077.41
2023-08-26T15:04:14.645Z,101070.78
2023-08-26T15:06:47.569Z,101069.31
2023-08-26T15:09:23.015Z,101072.97
2023-08-26T15:11:55.379Z,101078.72
2023-08-26T15:14:27.524Z,101067.28
2023-08-26T15:17:01.020Z,101067.25
2023-08-26T15:19:33.219Z,101066.41
2023-08-26T15:22:05.433Z,101063.03
2023-08-26T15:24:37.679Z,101056.38
2023-08-26T15:27:09.848Z,101067.09
2023-08-26T15:29:42.548Z,101053.41
2023-08-26T15:32:15.088Z,101045.81
2023-08-26T15:34:47.264Z,101049.44
2023-08-26T15:37:19.835Z,101055.91
2023-08-26T15:39:51.962Z,101054.34
2023-08-26T15:42:24.093Z,101054.09
2023-08-26T15:44:56.330Z,101059.59
2023-08-26T15:47:28.903Z,101053.28
2023-08-26T15:50:03.095Z,101053.38
2023-08-26T15:52:36.144Z,101052.34
2023-08-26T15:55:08.417Z,101058.78
2023-08-26T15:57:40.582Z,101044.69
2023-08-26T16:00:17.387Z,101048.41
2023-08-26T16:02:49.585Z,101042.28
2023-08-26T16:05:21.788Z,101040.03
2023-08-26T16:07:54.026Z,101039.88
2023-08-26T16:10:26.171Z,101047.06
2023-08-26T16:12:58.961Z,101036.69
2023-08-26T16:15:34.898Z,101034.72
2023-08-26T16:18:07.208Z,101034.50
2023-08-26T16:20:39.388Z,101036.28
2023-08-26T16:23:11.488Z,101033.72
2023-08-26T16:25:43.768Z,101038.19
2023-08-26T16:28:15.915Z,101039.91
2023-08-26T16:30:48.483Z,101028.78
2023-08-26T16:33:23.775Z,101029.66
2023-08-26T16:35:56.517Z,101023.38
2023-08-26T16:38:28.812Z,101028.56
2023-08-26T16:41:02.294Z,101028.69
2023-08-26T16:43:34.933Z,101031.38
2023-08-26T16:46:09.200Z,101029.00
2023-08-26T16:48:41.948Z,101026.19
2023-08-26T16:51:14.185Z,101034.41
2023-08-26T16:53:46.810Z,101031.75
2023-08-26T16:56:19.010Z,101038.31
2023-08-26T16:58:51.217Z,101045.28
2023-08-26T17:01:23.619Z,101038.16
2023-08-26T17:03:55.864Z,101041.41
2023-08-26T17:06:28.053Z,101042.69
2023-08-26T17:09:00.148Z,101052.47
2023-08-26T17:11:32.344Z,101041.63
2023-08-26T17:14:04.762Z,101047.16
2023-08-26T17:16:36.979Z,101046.84
2023-08-26T17:19:09.364Z,101038.94
2023-08-26T17:21:41.593Z,101048.44
2023-08-26T17:24:14.148Z,101048.13
2023-08-26T17:26:46.276Z,101051.41
2023-08-26T17:29:18.940Z,101049.75
2023-08-26T17:31:51.067Z,101065.97
2023-08-26T17:34:23.241Z,101055.00
2023-08-26T17:36:55.520Z,101068.00
2023-08-26T17:39:27.669Z,101072.53
2023-08-26T17:42:01.869Z,101077.69
2023-08-26T17:44:34.390Z,101088.91
2023-08-26T17:47:06.549Z,101116.16
2023-08-26T17:49:39.789Z,101147.16
2023-08-26T17:52:12.503Z,101163.00
2023-08-26T17:54:46.460Z,101171.19
2023-08-26T17:57:18.821Z,101166.97
2023-08-26T17:59:50.915Z,101164.16
2023-08-26T18:02:23.193Z,101164.19
2023-08-26T18:04:55.270Z,101167.22
2023-08-26T18:07:27.663Z,101169.16
2023-08-26T18:10:00.206Z,101163.16
2023-08-26T18:12:32.431Z,101165.88
2023-08-26T18:15:05.453Z,101166.78
2023-08-26T18:17:37.625Z,101163.56
2023-08-26T18:20:12.881Z,101176.94
2023-08-26T18:22:45.408Z,101167.25
2023-08-26T18:25:17.531Z,101172.66
2023-08-26T18:27:49.785Z,101174.59
2023-08-26T18:30:22.059Z,101171.66
2023-08-26T18:32:54.344Z,101161.78
2023-08-26T18:35:26.473Z,101158.59
2023-08-26T18:37:58.805Z,101158.13
2023-08-26T18:40:31.131Z,101161.56
2023-08-26T18:43:03.456Z,101165.97
2023-08-26T18:45:35.604Z,101175.50
2023-08-26T18:48:08.260Z,101170.59
2023-08-26T18:50:40.427Z,101180.09
2023-08-26T18:53:13.161Z,101181.06
2023-08-26T18:55:50.926Z,101189.97
2023-08-26T18:58:25.249Z,101189.31
2023-08-26T19:00:57.741Z,101180.97
2023-08-26T19:03:30.064Z,101186.28
2023-08-26T19:06:02.462Z,101182.00
2023-08-26T19:08:36.295Z,101178.69
2023-08-26T19:11:08.417Z,101181.44
2023-08-26T19:13:41.571Z,101184.88
2023-08-26T19:16:13.942Z,101180.31
2023-08-26T19:18:46.247Z,101188.28
2023-08-26T19:21:18.678Z,101190.84
2023-08-26T19:23:50.932Z,101182.00
2023-08-26T19:26:23.184Z,101181.00
2023-08-26T19:28:55.564Z,101172.78
2023-08-26T19:31:28.342Z,101170.00
2023-08-26T19:34:00.564Z,101171.69
2023-08-26T19:36:32.724Z,101175.28
2023-08-26T19:39:04.991Z,101170.84
2023-08-26T19:41:37.310Z,101169.06
2023-08-26T19:44:12.343Z,101172.72
2023-08-26T19:46:44.452Z,101164.88
2023-08-26T19:49:16.735Z,101165.09
2023-08-26T19:51:49.055Z,101166.09
2023-08-26T19:54:21.235Z,101163.56
2023-08-26T19:56:56.333Z,101154.91
2023-08-26T19:59:28.479Z,101149.53
2023-08-26T20:02:00.673Z,101145.28
2023-08-26T20:04:32.870Z,101140.91
2023-08-26T20:07:04.996Z,101151.56
2023-08-26T20:09:37.308Z,101157.84
2023-08-26T20:12:09.513Z,101162.22
2023-08-26T20:14:42.901Z,101151.47
2023-08-26T20:17:15.014Z,101152.25
2023-08-26T20:19:47.211Z,101150.53
2023-08-26T20:22:19.349Z,101153.25
2023-08-26T20:24:51.765Z,101149.94
2023-08-26T20:27:24.272Z,101143.25
2023-08-26T20:29:56.442Z,101143.75
2023-08-26T20:32:29.181Z,101140.25
2023-08-26T20:35:01.349Z,101142.84
2023-08-26T20:37:33.777Z,101144.66
2023-08-26T20:40:09.664Z,101140.16
2023-08-26T20:42:42.893Z,101150.81
2023-08-26T20:45:15.040Z,101150.84
2023-08-26T20:47:47.241Z,101150.84
2023-08-26T20:50:19.368Z,101156.94
2023-08-26T20:52:51.478Z,101162.13
2023-08-26T20:55:23.695Z,101155.06
2023-08-26T20:57:55.818Z,101156.00
2023-08-26T21:00:28.174Z,101162.16
2023-08-26T21:03:00.909Z,101158.72
2023-08-26T21:05:34.106Z,101153.44
2023-08-26T21:08:06.735Z,101144.69
2023-08-26T21:10:38.853Z,101141.19
2023-08-26T21:13:11.240Z,101137.53
2023-08-26T21:15:46.456Z,101134.69
2023-08-26T21:18:19.180Z,101139.97
2023-08-26T21:20:52.867Z,101140.03
2023-08-26T21:23:25.108Z,101134.84
2023-08-26T21:25:57.762Z,101138.44
2023-08-26T21:28:30.650Z,101132.50
2023-08-26T21:31:09.209Z,101131.63
2023-08-26T21:33:41.602Z,101133.69
2023-08-26T21:36:13.901Z,101132.56
2023-08-26T21:38:46.081Z,101120.41
2023-08-26T21:41:18.625Z,101126.50
2023-08-26T21:43:52.483Z,101134.25
2023-08-26T21:46:24.643Z,101124.59
2023-08-26T21:48:59.984Z,101123.00
2023-08-26T21:51:32.160Z,101115.69
2023-08-26T21:54:04.490Z,101119.88
2023-08-26T21:56:36.607Z,101118.81
2023-08-26T21:59:08.824Z,101118.00
2023-08-26T22:01:41.010Z,101114.38
2023-08-26T22:04:13.162Z,101115.19
2023-08-26T22:06:45.299Z,101118.81
2023-08-26T22:09:17.372Z,101114.47
2023-08-26T22:11:50.767Z,101116.22
2023-08-26T22:14:22.914Z,101109.13
2023-08-26T22:16:55.164Z,101105.66
2023-08-26T22:19:27.379Z,101113.72
2023-08-26T22:21:59.490Z,101100.34
2023-08-26T22:24:31.632Z,101106.56
2023-08-26T22:27:03.941Z,101089.94
2023-08-26T22:29:36.070Z,101098.16
2023-08-26T22:32:08.158Z,101092.03
2023-08-26T22:34:40.249Z,101100.06
2023-08-26T22:37:13.702Z,101093.13
2023-08-26T22:39:45.889Z,101101.88
2023-08-26T22:42:18.045Z,101096.47
2023-08-26T22:44:50.245Z,101096.53
2023-08-26T22:47:22.408Z,101105.25
2023-08-26T22:49:59.988Z,101107.13
2023-08-26T22:52:33.413Z,101110.75
2023-08-26T22:55:07.312Z,101108.78
2023-08-26T22:57:39.445Z,101108.00
2023-08-26T23:00:11.938Z,101105.47
2023-08-26T23:02:44.814Z,101103.78
2023-08-26T23:05:17.102Z,101110.94
2023-08-26T23:07:49.347Z,101104.91
2023-08-26T23:10:21.565Z,101107.66
2023-08-26T23:12:53.679Z,101107.72
2023-08-26T23:15:25.920Z,101109.50
2023-08-26T23:17:58.133Z,101106.75
2023-08-26T23:20:30.262Z,101108.44
2023-08-26T23:23:02.405Z,101108.41
2023-08-26T23:25:34.619Z,101113.63
2023-08-26T23:28:06.983Z,101121.53
2023-08-26T23:30:43.282Z,101111.13
2023-08-26T23:33:18.180Z,101112.16
2023-08-26T23:35:50.380Z,101111.50
2023-08-26T23:38:22.514Z,101115.06
2023-08-26T23:40:54.610Z,101114.13
2023-08-26T23:43:26.763Z,101114.94
2023-08-26T23:45:58.834Z,101109.66
2023-08-26T23:48:31.056Z,101114.97
2023-08-26T23:51:03.333Z,101114.16
2023-08-26T23:53:35.427Z,101117.78
2023-08-26T23:56:07.560Z,101114.34
2023-08-26T23:58:39.796Z,101108.13
